EDT,Max TemperatureF,Mean TemperatureF,Min TemperatureF,Max Dew PointF,MeanDew PointF,Min DewpointF,Max Humidity, Mean Humidity, Min Humidity, Max Sea Level PressureIn, Mean Sea Level PressureIn, Min Sea Level PressureIn, Max VisibilityMiles, Mean VisibilityMiles, Min VisibilityMiles, Max Wind SpeedMPH, Mean Wind SpeedMPH, Max Gust SpeedMPH,PrecipitationIn, CloudCover, Events, WindDirDegrees
2013-10-1,78,65,52,59,54,51,93,70,46,30.18,30.11,30.04,10,5,0,9,2,12,0.00,3,Fog,325
2013-10-2,81,66,51,59,55,50,100,73,45,30.23,30.14,30.06,10,5,0,7,1,10,0.00,4,Fog,150
2013-10-3,80,68,55,60,57,55,93,68,42,30.16,30.10,30.04,10,7,2,7,1,9,0.00,4,,158
2013-10-4,82,69,55,61,58,54,93,68,43,30.18,30.11,30.07,10,8,2,9,1,12,0.00,2,,267
2013-10-5,85,70,55,63,58,54,100,72,43,30.21,30.09,29.99,10,6,0,8,1,11,0.00,2,Fog,136
2013-10-6,85,71,56,61,57,54,100,69,37,30.03,29.91,29.80,10,9,6,17,5,22,0.03,3,,152
2013-10-7,69,60,50,63,52,44,93,68,42,30.08,29.91,29.77,10,8,2,20,6,23,0.38,6,Rain,273
2013-10-8,72,57,41,48,44,40,96,66,35,30.17,30.12,30.07,10,10,10,12,3,15,0.00,1,,60
2013-10-9,75,59,42,47,44,40,93,63,33,30.22,30.16,30.11,10,10,6,8,2,12,0.00,0,,64
2013-10-10,72,56,40,50,44,38,89,65,40,30.15,30.10,30.03,10,10,10,9,2,13,0.00,3,,360
2013-10-11,78,63,48,54,48,43,93,63,33,30.12,30.03,29.95,10,6,0,13,3,17,0.00,4,Fog,322
2013-10-12,74,67,59,61,57,51,97,77,57,30.15,30.06,29.97,10,6,0,8,1,11,0.02,7,Fog-Rain,240
2013-10-13,74,67,59,60,59,58,100,81,61,30.25,30.17,30.10,10,5,0,9,1,14,0.01,8,Fog-Rain,338
2013-10-14,79,67,55,58,56,54,100,72,43,30.25,30.19,30.09,10,7,0,9,2,13,0.00,4,Fog,89
2013-10-15,76,63,49,57,52,49,96,71,46,30.18,30.09,30.01,10,9,1,7,1,9,0.00,4,,125
2013-10-16,68,61,53,58,55,51,93,78,63,30.03,29.98,29.94,10,10,9,8,1,11,T,6,Rain,310
2013-10-17,68,62,55,63,58,48,93,84,75,29.98,29.89,29.81,10,6,2,17,4,23,0.17,8,Rain,266
2013-10-18,64,54,43,48,44,39,93,68,43,30.06,29.99,29.95,10,10,9,7,2,13,0.00,5,,328
2013-10-19,64,56,48,49,46,41,93,73,52,30.01,29.92,29.86,10,10,6,20,5,24,T,7,,278
2013-10-20,63,49,34,40,35,28,92,60,27,30.09,30.04,29.99,10,10,10,10,2,13,0.00,1,,338
2013-10-21,69,52,34,43,38,32,96,63,30,30.13,30.04,29.98,10,10,9,17,3,22,0.00,2,,267
2013-10-22,66,56,46,48,46,42,93,73,52,29.98,29.90,29.81,10,10,8,12,3,19,T,6,,312
2013-10-23,55,44,33,48,38,28,89,68,46,30.06,29.87,29.75,10,10,10,28,11,37,T,6,Rain,261
2013-10-24,53,41,28,36,31,27,92,69,46,30.20,30.13,30.07,10,10,7,17,5,22,0.02,6,Rain,277
2013-10-25,45,36,26,30,25,22,81,61,40,30.43,30.35,30.21,10,10,9,16,5,22,T,5,Snow,303
2013-10-26,56,39,22,30,23,19,92,59,26,30.34,30.22,30.09,10,9,0,20,5,25,0.00,4,Fog,249
2013-10-27,66,54,42,46,37,29,72,55,37,30.15,30.08,30.03,10,10,10,16,5,22,0.00,5,,239
2013-10-28,65,58,51,53,49,46,86,73,60,30.27,30.19,30.10,10,8,2,7,1,14,0.01,8,Rain,242
2013-10-29,70,62,54,52,50,47,93,69,45,30.35,30.28,30.22,10,10,7,10,2,17,0.00,7,,295
2013-10-30,75,64,52,56,52,48,93,68,43,30.31,30.19,30.12,10,9,6,17,2,22,0.04,6,Rain,302
2013-10-31,72,62,51,55,51,47,96,70,44,30.12,29.96,29.65,10,8,1,22,7,33,T,7,,182